sensor_id;sensor_type;location;lat;lon;timestamp;temperature;humidity
74368;DHT22;64991;41.090;-8.118;2023-04-06T00:01:35;18.90;68.90
74368;DHT22;64991;41.090;-8.118;2023-04-06T00:06:39;18.90;69.00
74368;DHT22;64991;41.090;-8.118;2023-04-06T00:11:43;18.90;69.30
74368;DHT22;64991;41.090;-8.118;2023-04-06T00:16:47;18.90;69.10
74368;DHT22;64991;41.090;-8.118;2023-04-06T00:21:50;18.90;69.60
74368;DHT22;64991;41.090;-8.118;2023-04-06T00:26:55;18.90;69.60
74368;DHT22;64991;41.090;-8.118;2023-04-06T00:31:59;18.90;69.40
74368;DHT22;64991;41.090;-8.118;2023-04-06T00:37:02;18.90;69.60
74368;DHT22;64991;41.090;-8.118;2023-04-06T00:42:09;18.90;69.30
74368;DHT22;64991;41.090;-8.118;2023-04-06T00:47:15;18.90;69.30
74368;DHT22;64991;41.090;-8.118;2023-04-06T00:52:18;18.90;69.60
74368;DHT22;64991;41.090;-8.118;2023-04-06T00:57:23;18.90;69.20
74368;DHT22;64991;41.090;-8.118;2023-04-06T01:02:27;18.90;69.20
74368;DHT22;64991;41.090;-8.118;2023-04-06T01:07:30;18.90;69.20
74368;DHT22;64991;41.090;-8.118;2023-04-06T01:12:35;18.90;69.00
74368;DHT22;64991;41.090;-8.118;2023-04-06T01:17:39;18.90;69.30
74368;DHT22;64991;41.090;-8.118;2023-04-06T01:22:44;18.80;69.50
74368;DHT22;64991;41.090;-8.118;2023-04-06T01:27:48;18.90;69.20
74368;DHT22;64991;41.090;-8.118;2023-04-06T01:32:51;18.90;69.60
74368;DHT22;64991;41.090;-8.118;2023-04-06T01:37:56;18.90;69.70
74368;DHT22;64991;41.090;-8.118;2023-04-06T01:43:00;18.80;69.40
74368;DHT22;64991;41.090;-8.118;2023-04-06T01:48:03;18.90;69.60
74368;DHT22;64991;41.090;-8.118;2023-04-06T01:53:09;18.90;69.00
74368;DHT22;64991;41.090;-8.118;2023-04-06T01:58:12;18.90;69.30
74368;DHT22;64991;41.090;-8.118;2023-04-06T02:03:16;18.90;69.10
74368;DHT22;64991;41.090;-8.118;2023-04-06T02:08:21;18.90;69.20
74368;DHT22;64991;41.090;-8.118;2023-04-06T02:13:24;18.80;69.00
74368;DHT22;64991;41.090;-8.118;2023-04-06T02:18:28;18.80;69.30
74368;DHT22;64991;41.090;-8.118;2023-04-06T02:23:34;18.90;69.30
74368;DHT22;64991;41.090;-8.118;2023-04-06T02:28:37;18.80;69.20
74368;DHT22;64991;41.090;-8.118;2023-04-06T02:33:41;18.90;69.00
74368;DHT22;64991;41.090;-8.118;2023-04-06T02:38:46;18.80;69.00
74368;DHT22;64991;41.090;-8.118;2023-04-06T02:43:49;18.80;69.00
74368;DHT22;64991;41.090;-8.118;2023-04-06T02:48:53;18.90;68.80
74368;DHT22;64991;41.090;-8.118;2023-04-06T02:53:58;18.80;68.90
74368;DHT22;64991;41.090;-8.118;2023-04-06T02:59:01;19.00;68.50
74368;DHT22;64991;41.090;-8.118;2023-04-06T03:04:04;18.90;68.90
74368;DHT22;64991;41.090;-8.118;2023-04-06T03:09:09;18.80;68.90
74368;DHT22;64991;41.090;-8.118;2023-04-06T03:14:13;18.80;69.00
74368;DHT22;64991;41.090;-8.118;2023-04-06T03:19:16;18.80;69.10
74368;DHT22;64991;41.090;-8.118;2023-04-06T03:24:21;18.80;69.00
74368;DHT22;64991;41.090;-8.118;2023-04-06T03:29:24;18.80;68.70
74368;DHT22;64991;41.090;-8.118;2023-04-06T03:34:28;18.80;68.70
74368;DHT22;64991;41.090;-8.118;2023-04-06T03:39:33;18.80;68.60
74368;DHT22;64991;41.090;-8.118;2023-04-06T03:44:37;18.70;68.70
74368;DHT22;64991;41.090;-8.118;2023-04-06T03:49:40;18.80;68.70
74368;DHT22;64991;41.090;-8.118;2023-04-06T03:54:45;18.80;68.40
74368;DHT22;64991;41.090;-8.118;2023-04-06T03:59:49;18.80;68.50
74368;DHT22;64991;41.090;-8.118;2023-04-06T04:04:52;18.70;68.50
74368;DHT22;64991;41.090;-8.118;2023-04-06T04:09:57;18.80;68.30
74368;DHT22;64991;41.090;-8.118;2023-04-06T04:15:01;18.80;68.20
74368;DHT22;64991;41.090;-8.118;2023-04-06T04:20:05;18.80;68.10
74368;DHT22;64991;41.090;-8.118;2023-04-06T04:25:11;18.80;67.90
74368;DHT22;64991;41.090;-8.118;2023-04-06T04:30:15;18.70;68.00
74368;DHT22;64991;41.090;-8.118;2023-04-06T04:35:18;18.80;67.70
74368;DHT22;64991;41.090;-8.118;2023-04-06T04:40:23;18.60;67.70
74368;DHT22;64991;41.090;-8.118;2023-04-06T04:45:27;18.70;67.40
74368;DHT22;64991;41.090;-8.118;2023-04-06T04:50:30;18.70;67.50
74368;DHT22;64991;41.090;-8.118;2023-04-06T04:55:35;18.70;67.50
74368;DHT22;64991;41.090;-8.118;2023-04-06T05:00:39;18.70;67.30
74368;DHT22;64991;41.090;-8.118;2023-04-06T05:05:42;18.60;67.70
74368;DHT22;64991;41.090;-8.118;2023-04-06T05:10:47;18.70;67.60
74368;DHT22;64991;41.090;-8.118;2023-04-06T05:15:51;18.70;67.20
74368;DHT22;64991;41.090;-8.118;2023-04-06T05:20:55;18.70;67.60
74368;DHT22;64991;41.090;-8.118;2023-04-06T05:25:59;18.70;67.40
74368;DHT22;64991;41.090;-8.118;2023-04-06T05:31:03;18.70;67.30
74368;DHT22;64991;41.090;-8.118;2023-04-06T05:36:07;18.60;67.00
74368;DHT22;64991;41.090;-8.118;2023-04-06T05:41:15;18.70;66.90
74368;DHT22;64991;41.090;-8.118;2023-04-06T05:46:18;18.70;67.00
74368;DHT22;64991;41.090;-8.118;2023-04-06T05:51:22;18.70;66.70
74368;DHT22;64991;41.090;-8.118;2023-04-06T05:56:26;18.80;67.00
74368;DHT22;64991;41.090;-8.118;2023-04-06T06:01:32;18.70;66.70
74368;DHT22;64991;41.090;-8.118;2023-04-06T06:06:36;18.80;66.60
74368;DHT22;64991;41.090;-8.118;2023-04-06T06:11:41;18.70;66.20
74368;DHT22;64991;41.090;-8.118;2023-04-06T06:16:45;18.70;66.50
74368;DHT22;64991;41.090;-8.118;2023-04-06T06:21:48;18.70;66.50
74368;DHT22;64991;41.090;-8.118;2023-04-06T06:26:53;18.60;66.50
74368;DHT22;64991;41.090;-8.118;2023-04-06T06:31:56;18.70;66.60
74368;DHT22;64991;41.090;-8.118;2023-04-06T06:37:00;18.70;66.40
74368;DHT22;64991;41.090;-8.118;2023-04-06T06:42:05;18.70;66.60
74368;DHT22;64991;41.090;-8.118;2023-04-06T06:47:09;18.60;66.50
74368;DHT22;64991;41.090;-8.118;2023-04-06T06:52:12;18.60;66.40
74368;DHT22;64991;41.090;-8.118;2023-04-06T06:57:17;18.60;66.90
74368;DHT22;64991;41.090;-8.118;2023-04-06T07:02:21;18.70;66.70
74368;DHT22;64991;41.090;-8.118;2023-04-06T07:07:24;18.60;66.90
74368;DHT22;64991;41.090;-8.118;2023-04-06T07:12:29;18.70;66.70
74368;DHT22;64991;41.090;-8.118;2023-04-06T07:17:34;18.80;66.50
74368;DHT22;64991;41.090;-8.118;2023-04-06T07:22:37;18.50;66.80
74368;DHT22;64991;41.090;-8.118;2023-04-06T07:27:42;18.50;66.40
74368;DHT22;64991;41.090;-8.118;2023-04-06T07:32:46;18.60;66.30
74368;DHT22;64991;41.090;-8.118;2023-04-06T07:37:49;18.60;66.20
74368;DHT22;64991;41.090;-8.118;2023-04-06T07:42:54;18.70;66.40
74368;DHT22;64991;41.090;-8.118;2023-04-06T07:47:58;18.60;66.60
74368;DHT22;64991;41.090;-8.118;2023-04-06T07:53:02;18.60;66.40
74368;DHT22;64991;41.090;-8.118;2023-04-06T07:58:07;18.60;66.60
74368;DHT22;64991;41.090;-8.118;2023-04-06T08:03:10;18.50;66.90
74368;DHT22;64991;41.090;-8.118;2023-04-06T08:08:14;18.60;66.80
74368;DHT22;64991;41.090;-8.118;2023-04-06T08:13:19;18.60;66.80
74368;DHT22;64991;41.090;-8.118;2023-04-06T08:18:23;18.50;66.50
74368;DHT22;64991;41.090;-8.118;2023-04-06T08:23:26;18.60;66.90
74368;DHT22;64991;41.090;-8.118;2023-04-06T08:28:31;18.60;67.30
74368;DHT22;64991;41.090;-8.118;2023-04-06T08:33:36;18.50;67.20
74368;DHT22;64991;41.090;-8.118;2023-04-06T08:38:41;18.40;67.20
74368;DHT22;64991;41.090;-8.118;2023-04-06T08:43:47;18.50;67.30
74368;DHT22;64991;41.090;-8.118;2023-04-06T08:48:52;18.60;67.30
74368;DHT22;64991;41.090;-8.118;2023-04-06T08:53:56;18.50;67.10
74368;DHT22;64991;41.090;-8.118;2023-04-06T08:59:02;18.50;67.30
74368;DHT22;64991;41.090;-8.118;2023-04-06T09:04:06;18.60;66.70
74368;DHT22;64991;41.090;-8.118;2023-04-06T09:09:14;18.50;67.10
74368;DHT22;64991;41.090;-8.118;2023-04-06T09:14:32;18.50;66.70
74368;DHT22;64991;41.090;-8.118;2023-04-06T09:19:44;18.60;66.80
74368;DHT22;64991;41.090;-8.118;2023-04-06T09:24:49;18.60;66.90
74368;DHT22;64991;41.090;-8.118;2023-04-06T09:30:01;18.50;66.80
74368;DHT22;64991;41.090;-8.118;2023-04-06T09:35:06;18.60;66.90
74368;DHT22;64991;41.090;-8.118;2023-04-06T09:40:10;18.60;66.70
74368;DHT22;64991;41.090;-8.118;2023-04-06T09:45:16;18.60;66.70
74368;DHT22;64991;41.090;-8.118;2023-04-06T09:50:20;18.60;67.10
74368;DHT22;64991;41.090;-8.118;2023-04-06T09:55:26;18.60;66.80
74368;DHT22;64991;41.090;-8.118;2023-04-06T10:00:40;18.60;66.70
74368;DHT22;64991;41.090;-8.118;2023-04-06T10:05:46;18.60;66.90
74368;DHT22;64991;41.090;-8.118;2023-04-06T10:10:53;18.60;66.90
74368;DHT22;64991;41.090;-8.118;2023-04-06T10:15:58;18.60;67.00
74368;DHT22;64991;41.090;-8.118;2023-04-06T10:21:04;18.60;67.00
74368;DHT22;64991;41.090;-8.118;2023-04-06T10:26:12;18.70;66.90
74368;DHT22;64991;41.090;-8.118;2023-04-06T10:31:25;18.60;67.30
74368;DHT22;64991;41.090;-8.118;2023-04-06T10:36:31;18.60;67.20
74368;DHT22;64991;41.090;-8.118;2023-04-06T10:41:36;18.60;67.20
74368;DHT22;64991;41.090;-8.118;2023-04-06T10:46:53;18.60;67.30
74368;DHT22;64991;41.090;-8.118;2023-04-06T10:51:58;18.60;67.00
74368;DHT22;64991;41.090;-8.118;2023-04-06T10:57:01;18.70;67.20
74368;DHT22;64991;41.090;-8.118;2023-04-06T11:02:06;18.70;66.90
74368;DHT22;64991;41.090;-8.118;2023-04-06T11:07:10;18.60;67.10
74368;DHT22;64991;41.090;-8.118;2023-04-06T11:12:20;18.70;67.10
74368;DHT22;64991;41.090;-8.118;2023-04-06T11:17:28;18.70;67.30
74368;DHT22;64991;41.090;-8.118;2023-04-06T11:22:31;18.60;67.30
74368;DHT22;64991;41.090;-8.118;2023-04-06T11:27:35;18.70;67.40
74368;DHT22;64991;41.090;-8.118;2023-04-06T11:32:43;18.70;67.50
74368;DHT22;64991;41.090;-8.118;2023-04-06T11:37:48;18.70;67.50
74368;DHT22;64991;41.090;-8.118;2023-04-06T11:42:53;18.70;67.70
74368;DHT22;64991;41.090;-8.118;2023-04-06T11:47:59;18.70;67.40
74368;DHT22;64991;41.090;-8.118;2023-04-06T11:53:03;18.70;67.70
74368;DHT22;64991;41.090;-8.118;2023-04-06T11:58:06;18.70;67.60
74368;DHT22;64991;41.090;-8.118;2023-04-06T12:03:11;18.70;67.80
74368;DHT22;64991;41.090;-8.118;2023-04-06T12:08:15;18.70;68.20
74368;DHT22;64991;41.090;-8.118;2023-04-06T12:13:18;18.70;68.00
74368;DHT22;64991;41.090;-8.118;2023-04-06T12:18:23;18.70;68.00
74368;DHT22;64991;41.090;-8.118;2023-04-06T12:23:27;18.70;68.00
74368;DHT22;64991;41.090;-8.118;2023-04-06T12:28:30;18.70;68.30
74368;DHT22;64991;41.090;-8.118;2023-04-06T12:33:35;18.70;68.40
74368;DHT22;64991;41.090;-8.118;2023-04-06T12:38:39;18.70;68.40
74368;DHT22;64991;41.090;-8.118;2023-04-06T12:43:43;18.70;68.20
74368;DHT22;64991;41.090;-8.118;2023-04-06T12:48:48;18.70;68.40
74368;DHT22;64991;41.090;-8.118;2023-04-06T12:53:55;18.70;68.40
74368;DHT22;64991;41.090;-8.118;2023-04-06T12:58:58;18.70;68.70
74368;DHT22;64991;41.090;-8.118;2023-04-06T13:04:04;18.70;68.60
74368;DHT22;64991;41.090;-8.118;2023-04-06T13:09:07;18.70;68.60
74368;DHT22;64991;41.090;-8.118;2023-04-06T13:14:11;18.80;68.50
74368;DHT22;64991;41.090;-8.118;2023-04-06T13:19:16;18.70;68.70
74368;DHT22;64991;41.090;-8.118;2023-04-06T13:24:20;18.80;68.90
74368;DHT22;64991;41.090;-8.118;2023-04-06T13:29:23;18.70;68.60
74368;DHT22;64991;41.090;-8.118;2023-04-06T13:34:29;18.80;68.70
74368;DHT22;64991;41.090;-8.118;2023-04-06T13:39:32;18.80;68.90
74368;DHT22;64991;41.090;-8.118;2023-04-06T13:44:36;18.80;68.40
74368;DHT22;64991;41.090;-8.118;2023-04-06T13:49:41;18.70;68.70
74368;DHT22;64991;41.090;-8.118;2023-04-06T13:54:44;18.70;68.70
74368;DHT22;64991;41.090;-8.118;2023-04-06T13:59:48;18.70;68.80
74368;DHT22;64991;41.090;-8.118;2023-04-06T14:04:53;18.70;68.70
74368;DHT22;64991;41.090;-8.118;2023-04-06T14:09:57;18.70;68.50
74368;DHT22;64991;41.090;-8.118;2023-04-06T14:15:01;18.80;68.80
74368;DHT22;64991;41.090;-8.118;2023-04-06T14:20:07;18.70;68.40
74368;DHT22;64991;41.090;-8.118;2023-04-06T14:25:15;18.70;68.60
74368;DHT22;64991;41.090;-8.118;2023-04-06T14:30:19;18.70;68.70
74368;DHT22;64991;41.090;-8.118;2023-04-06T14:35:24;18.70;68.50
74368;DHT22;64991;41.090;-8.118;2023-04-06T14:40:30;18.80;68.80
74368;DHT22;64991;41.090;-8.118;2023-04-06T14:45:33;18.80;68.60
74368;DHT22;64991;41.090;-8.118;2023-04-06T14:50:40;18.80;68.60
74368;DHT22;64991;41.090;-8.118;2023-04-06T14:55:47;18.70;68.60
74368;DHT22;64991;41.090;-8.118;2023-04-06T15:00:54;18.80;68.40
74368;DHT22;64991;41.090;-8.118;2023-04-06T15:05:59;18.80;68.80
74368;DHT22;64991;41.090;-8.118;2023-04-06T15:11:03;18.90;68.70
74368;DHT22;64991;41.090;-8.118;2023-04-06T15:16:07;18.70;68.80
74368;DHT22;64991;41.090;-8.118;2023-04-06T15:21:12;18.80;68.80
74368;DHT22;64991;41.090;-8.118;2023-04-06T15:26:15;18.80;68.70
74368;DHT22;64991;41.090;-8.118;2023-04-06T15:31:19;18.70;68.50
74368;DHT22;64991;41.090;-8.118;2023-04-06T15:36:39;18.90;68.70
74368;DHT22;64991;41.090;-8.118;2023-04-06T15:41:45;18.80;68.80
74368;DHT22;64991;41.090;-8.118;2023-04-06T15:46:48;18.80;68.90
74368;DHT22;64991;41.090;-8.118;2023-04-06T15:51:54;18.80;68.90
74368;DHT22;64991;41.090;-8.118;2023-04-06T15:56:57;18.90;69.20
74368;DHT22;64991;41.090;-8.118;2023-04-06T16:02:00;18.80;68.80
74368;DHT22;64991;41.090;-8.118;2023-04-06T16:07:05;18.90;68.70
74368;DHT22;64991;41.090;-8.118;2023-04-06T16:12:09;18.90;68.50
74368;DHT22;64991;41.090;-8.118;2023-04-06T16:17:12;18.90;69.00
74368;DHT22;64991;41.090;-8.118;2023-04-06T16:22:17;18.90;67.00
74368;DHT22;64991;41.090;-8.118;2023-04-06T16:27:21;18.80;65.80
74368;DHT22;64991;41.090;-8.118;2023-04-06T16:32:24;18.90;69.00
74368;DHT22;64991;41.090;-8.118;2023-04-06T16:37:30;18.90;68.70
74368;DHT22;64991;41.090;-8.118;2023-04-06T16:42:33;18.90;68.80
74368;DHT22;64991;41.090;-8.118;2023-04-06T16:47:37;18.80;69.00
74368;DHT22;64991;41.090;-8.118;2023-04-06T16:52:41;18.90;68.70
74368;DHT22;64991;41.090;-8.118;2023-04-06T16:57:45;18.90;68.90
74368;DHT22;64991;41.090;-8.118;2023-04-06T17:02:50;18.90;68.90
74368;DHT22;64991;41.090;-8.118;2023-04-06T17:07:55;19.00;67.90
74368;DHT22;64991;41.090;-8.118;2023-04-06T17:12:58;19.00;69.10
74368;DHT22;64991;41.090;-8.118;2023-04-06T17:18:02;19.00;66.90
74368;DHT22;64991;41.090;-8.118;2023-04-06T17:23:07;19.00;66.60
74368;DHT22;64991;41.090;-8.118;2023-04-06T17:28:11;19.00;68.80
74368;DHT22;64991;41.090;-8.118;2023-04-06T17:33:15;19.00;67.00
74368;DHT22;64991;41.090;-8.118;2023-04-06T17:38:20;19.10;64.70
74368;DHT22;64991;41.090;-8.118;2023-04-06T17:43:24;19.00;65.70
74368;DHT22;64991;41.090;-8.118;2023-04-06T17:48:27;19.10;68.40
74368;DHT22;64991;41.090;-8.118;2023-04-06T17:53:33;19.10;67.20
74368;DHT22;64991;41.090;-8.118;2023-04-06T17:58:39;19.10;65.10
74368;DHT22;64991;41.090;-8.118;2023-04-06T18:03:42;19.00;67.50
74368;DHT22;64991;41.090;-8.118;2023-04-06T18:08:47;19.10;68.40
74368;DHT22;64991;41.090;-8.118;2023-04-06T18:13:51;19.10;70.00
74368;DHT22;64991;41.090;-8.118;2023-04-06T18:18:54;19.00;69.80
74368;DHT22;64991;41.090;-8.118;2023-04-06T18:24:00;19.10;70.40
74368;DHT22;64991;41.090;-8.118;2023-04-06T18:29:07;19.10;70.40
74368;DHT22;64991;41.090;-8.118;2023-04-06T18:34:10;19.00;69.90
74368;DHT22;64991;41.090;-8.118;2023-04-06T18:39:15;19.00;69.90
74368;DHT22;64991;41.090;-8.118;2023-04-06T18:44:18;19.10;70.50
74368;DHT22;64991;41.090;-8.118;2023-04-06T18:49:22;19.10;69.90
74368;DHT22;64991;41.090;-8.118;2023-04-06T18:54:27;19.10;70.50
74368;DHT22;64991;41.090;-8.118;2023-04-06T18:59:30;19.00;70.60
74368;DHT22;64991;41.090;-8.118;2023-04-06T19:04:34;19.10;70.40
74368;DHT22;64991;41.090;-8.118;2023-04-06T19:09:39;19.10;70.70
74368;DHT22;64991;41.090;-8.118;2023-04-06T19:14:42;19.10;70.80
74368;DHT22;64991;41.090;-8.118;2023-04-06T19:19:52;19.10;70.60
74368;DHT22;64991;41.090;-8.118;2023-04-06T19:24:57;19.10;71.00
74368;DHT22;64991;41.090;-8.118;2023-04-06T19:30:00;19.10;71.10
74368;DHT22;64991;41.090;-8.118;2023-04-06T19:35:04;19.10;70.50
74368;DHT22;64991;41.090;-8.118;2023-04-06T19:40:10;19.10;71.50
74368;DHT22;64991;41.090;-8.118;2023-04-06T19:45:13;19.10;71.00
74368;DHT22;64991;41.090;-8.118;2023-04-06T19:50:16;19.10;70.70
74368;DHT22;64991;41.090;-8.118;2023-04-06T19:55:21;19.10;70.80
74368;DHT22;64991;41.090;-8.118;2023-04-06T20:00:25;19.20;70.60
74368;DHT22;64991;41.090;-8.118;2023-04-06T20:05:28;19.10;70.90
74368;DHT22;64991;41.090;-8.118;2023-04-06T20:10:33;19.20;70.10
74368;DHT22;64991;41.090;-8.118;2023-04-06T20:15:37;19.10;70.00
74368;DHT22;64991;41.090;-8.118;2023-04-06T20:20:40;19.10;70.30
74368;DHT22;64991;41.090;-8.118;2023-04-06T20:25:46;19.20;69.80
74368;DHT22;64991;41.090;-8.118;2023-04-06T20:30:50;19.10;70.20
74368;DHT22;64991;41.090;-8.118;2023-04-06T20:35:57;19.10;70.30
74368;DHT22;64991;41.090;-8.118;2023-04-06T20:41:02;19.10;69.90
74368;DHT22;64991;41.090;-8.118;2023-04-06T20:46:05;19.10;69.80
74368;DHT22;64991;41.090;-8.118;2023-04-06T20:51:16;19.10;69.80
74368;DHT22;64991;41.090;-8.118;2023-04-06T20:56:22;19.20;69.80
74368;DHT22;64991;41.090;-8.118;2023-04-06T21:01:27;19.20;69.90
74368;DHT22;64991;41.090;-8.118;2023-04-06T21:06:31;19.10;69.80
74368;DHT22;64991;41.090;-8.118;2023-04-06T21:11:36;19.20;69.50
74368;DHT22;64991;41.090;-8.118;2023-04-06T21:16:39;19.10;69.50
74368;DHT22;64991;41.090;-8.118;2023-04-06T21:21:42;19.10;69.70
74368;DHT22;64991;41.090;-8.118;2023-04-06T21:26:48;19.10;69.80
74368;DHT22;64991;41.090;-8.118;2023-04-06T21:31:51;19.10;69.40
74368;DHT22;64991;41.090;-8.118;2023-04-06T21:36:56;19.10;69.70
74368;DHT22;64991;41.090;-8.118;2023-04-06T21:42:01;19.10;69.40
74368;DHT22;64991;41.090;-8.118;2023-04-06T21:47:04;19.10;69.40
74368;DHT22;64991;41.090;-8.118;2023-04-06T21:52:08;19.10;69.50
74368;DHT22;64991;41.090;-8.118;2023-04-06T21:57:13;19.10;69.60
74368;DHT22;64991;41.090;-8.118;2023-04-06T22:02:16;19.20;69.10
74368;DHT22;64991;41.090;-8.118;2023-04-06T22:07:20;19.20;68.90
74368;DHT22;64991;41.090;-8.118;2023-04-06T22:12:25;19.20;68.80
74368;DHT22;64991;41.090;-8.118;2023-04-06T22:17:28;19.20;68.30
74368;DHT22;64991;41.090;-8.118;2023-04-06T22:22:31;19.20;68.60
74368;DHT22;64991;41.090;-8.118;2023-04-06T22:27:36;19.20;68.70
74368;DHT22;64991;41.090;-8.118;2023-04-06T22:32:40;19.20;68.20
74368;DHT22;64991;41.090;-8.118;2023-04-06T22:37:43;19.30;68.20
74368;DHT22;64991;41.090;-8.118;2023-04-06T22:42:48;19.20;68.20
74368;DHT22;64991;41.090;-8.118;2023-04-06T22:47:51;19.30;68.10
74368;DHT22;64991;41.090;-8.118;2023-04-06T22:52:55;19.30;67.90
74368;DHT22;64991;41.090;-8.118;2023-04-06T22:57:59;19.30;68.10
74368;DHT22;64991;41.090;-8.118;2023-04-06T23:03:03;19.30;68.50
74368;DHT22;64991;41.090;-8.118;2023-04-06T23:08:07;19.20;68.30
74368;DHT22;64991;41.090;-8.118;2023-04-06T23:13:11;19.20;68.40
74368;DHT22;64991;41.090;-8.118;2023-04-06T23:18:15;19.20;68.20
74368;DHT22;64991;41.090;-8.118;2023-04-06T23:23:18;19.30;68.10
74368;DHT22;64991;41.090;-8.118;2023-04-06T23:28:23;19.30;68.40
74368;DHT22;64991;41.090;-8.118;2023-04-06T23:33:26;19.30;68.30
74368;DHT22;64991;41.090;-8.118;2023-04-06T23:38:30;19.20;68.00
74368;DHT22;64991;41.090;-8.118;2023-04-06T23:43:35;19.30;67.90
74368;DHT22;64991;41.090;-8.118;2023-04-06T23:48:38;19.30;67.80
74368;DHT22;64991;41.090;-8.118;2023-04-06T23:53:42;19.30;67.90
74368;DHT22;64991;41.090;-8.118;2023-04-06T23:58:48;19.20;68.10
